sensor_id;sensor_type;location;lat;lon;timestamp;pressure;altitude;pressure_sealevel;temperature;humidity
13869;BME280;7004;48.206;16.402;2023-01-29T00:02:05;100758.47;;;1.51;80.93
13869;BME280;7004;48.206;16.402;2023-01-29T00:04:31;100755.09;;;1.43;80.94
13869;BME280;7004;48.206;16.402;2023-01-29T00:06:59;100756.06;;;1.33;81.86
13869;BME280;7004;48.206;16.402;2023-01-29T00:09:27;100753.41;;;1.36;81.55
13869;BME280;7004;48.206;16.402;2023-01-29T00:11:53;100759.19;;;1.65;80.03
13869;BME280;7004;48.206;16.402;2023-01-29T00:14:19;100767.19;;;1.47;80.16
13869;BME280;7004;48.206;16.402;2023-01-29T00:16:46;100768.78;;;1.62;80.33
13869;BME280;7004;48.206;16.402;2023-01-29T00:19:12;100766.47;;;1.31;82.65
13869;BME280;7004;48.206;16.402;2023-01-29T00:21:38;100777.03;;;1.17;81.93
13869;BME280;7004;48.206;16.402;2023-01-29T00:24:06;100775.84;;;1.53;79.99
13869;BME280;7004;48.206;16.402;2023-01-29T00:26:32;100774.06;;;1.56;79.97
13869;BME280;7004;48.206;16.402;2023-01-29T00:28:58;100773.97;;;1.63;79.33
13869;BME280;7004;48.206;16.402;2023-01-29T00:31:28;100776.75;;;1.45;78.96
13869;BME280;7004;48.206;16.402;2023-01-29T00:33:54;100777.81;;;1.25;80.02
13869;BME280;7004;48.206;16.402;2023-01-29T00:36:21;100785.78;;;1.07;80.40
13869;BME280;7004;48.206;16.402;2023-01-29T00:38:59;100781.50;;;1.01;79.30
13869;BME280;7004;48.206;16.402;2023-01-29T00:41:30;100775.28;;;1.18;79.42
13869;BME280;7004;48.206;16.402;2023-01-29T00:44:15;100771.47;;;1.54;79.00
13869;BME280;7004;48.206;16.402;2023-01-29T00:47:01;100775.88;;;1.47;78.68
13869;BME280;7004;48.206;16.402;2023-01-29T00:49:27;100781.28;;;1.27;79.30
13869;BME280;7004;48.206;16.402;2023-01-29T00:51:55;100777.81;;;1.24;78.98
13869;BME280;7004;48.206;16.402;2023-01-29T00:54:39;100783.22;;;0.99;79.17
13869;BME280;7004;48.206;16.402;2023-01-29T00:57:05;100775.19;;;1.30;78.23
13869;BME280;7004;48.206;16.402;2023-01-29T00:59:32;100779.56;;;1.22;78.28
13869;BME280;7004;48.206;16.402;2023-01-29T01:01:58;100781.31;;;1.23;78.59
13869;BME280;7004;48.206;16.402;2023-01-29T01:04:43;100787.50;;;1.09;78.70
13869;BME280;7004;48.206;16.402;2023-01-29T01:07:09;100789.41;;;0.86;79.10
13869;BME280;7004;48.206;16.402;2023-01-29T01:09:36;100793.69;;;0.90;78.00
13869;BME280;7004;48.206;16.402;2023-01-29T01:12:20;100794.31;;;1.26;78.74
13869;BME280;7004;48.206;16.402;2023-01-29T01:14:47;100792.06;;;0.72;79.24
13869;BME280;7004;48.206;16.402;2023-01-29T01:17:13;100789.19;;;1.15;78.66
13869;BME280;7004;48.206;16.402;2023-01-29T01:19:40;100790.50;;;1.61;77.34
13869;BME280;7004;48.206;16.402;2023-01-29T01:22:06;100783.34;;;0.78;78.35
13869;BME280;7004;48.206;16.402;2023-01-29T01:24:32;100778.00;;;1.04;77.97
13869;BME280;7004;48.206;16.402;2023-01-29T01:26:59;100770.28;;;0.89;79.11
13869;BME280;7004;48.206;16.402;2023-01-29T01:29:25;100776.22;;;1.06;78.88
13869;BME280;7004;48.206;16.402;2023-01-29T01:31:52;100765.75;;;1.14;79.27
13869;BME280;7004;48.206;16.402;2023-01-29T01:34:18;100764.56;;;1.50;78.31
13869;BME280;7004;48.206;16.402;2023-01-29T01:36:45;100766.59;;;1.16;77.73
13869;BME280;7004;48.206;16.402;2023-01-29T01:39:11;100775.34;;;1.10;78.41
13869;BME280;7004;48.206;16.402;2023-01-29T01:41:37;100759.34;;;1.51;78.12
13869;BME280;7004;48.206;16.402;2023-01-29T01:44:04;100764.56;;;1.51;77.93
13869;BME280;7004;48.206;16.402;2023-01-29T01:46:36;100772.94;;;0.81;79.92
13869;BME280;7004;48.206;16.402;2023-01-29T01:49:11;100772.78;;;1.01;77.71
13869;BME280;7004;48.206;16.402;2023-01-29T01:51:47;100773.69;;;1.00;79.27
13869;BME280;7004;48.206;16.402;2023-01-29T01:54:22;100772.75;;;1.05;79.11
13869;BME280;7004;48.206;16.402;2023-01-29T01:56:58;100771.66;;;1.36;77.41
13869;BME280;7004;48.206;16.402;2023-01-29T01:59:38;100778.88;;;1.01;78.09
13869;BME280;7004;48.206;16.402;2023-01-29T02:02:05;100772.56;;;1.28;77.10
13869;BME280;7004;48.206;16.402;2023-01-29T02:04:54;100776.06;;;1.26;77.41
13869;BME280;7004;48.206;16.402;2023-01-29T02:07:47;100784.13;;;0.97;78.48
13869;BME280;7004;48.206;16.402;2023-01-29T02:10:43;100787.56;;;1.00;78.51
13869;BME280;7004;48.206;16.402;2023-01-29T02:13:10;100786.78;;;0.83;79.16
13869;BME280;7004;48.206;16.402;2023-01-29T02:15:37;100784.78;;;1.23;77.82
13869;BME280;7004;48.206;16.402;2023-01-29T02:18:07;100792.66;;;1.14;78.55
13869;BME280;7004;48.206;16.402;2023-01-29T02:20:34;100803.38;;;0.73;78.98
13869;BME280;7004;48.206;16.402;2023-01-29T02:26:14;100804.19;;;0.79;78.01
13869;BME280;7004;48.206;16.402;2023-01-29T02:29:04;100805.88;;;0.86;78.27
13869;BME280;7004;48.206;16.402;2023-01-29T02:32:04;100803.34;;;0.76;77.33
13869;BME280;7004;48.206;16.402;2023-01-29T02:38:24;100791.78;;;1.15;77.66
13869;BME280;7004;48.206;16.402;2023-01-29T02:41:21;100803.41;;;0.68;77.86
13869;BME280;7004;48.206;16.402;2023-01-29T02:44:01;100809.53;;;0.52;77.52
13869;BME280;7004;48.206;16.402;2023-01-29T02:47:04;100801.69;;;0.61;77.77
13869;BME280;7004;48.206;16.402;2023-01-29T02:49:59;100806.69;;;0.93;76.58
13869;BME280;7004;48.206;16.402;2023-01-29T02:53:09;100812.28;;;0.18;76.74
13869;BME280;7004;48.206;16.402;2023-01-29T02:58:28;100813.91;;;0.43;76.71
13869;BME280;7004;48.206;16.402;2023-01-29T03:01:02;100823.41;;;0.54;76.80
13869;BME280;7004;48.206;16.402;2023-01-29T03:03:42;100825.03;;;0.76;76.99
13869;BME280;7004;48.206;16.402;2023-01-29T03:06:29;100820.94;;;0.26;76.41
13869;BME280;7004;48.206;16.402;2023-01-29T03:09:03;100814.03;;;0.16;77.15
13869;BME280;7004;48.206;16.402;2023-01-29T03:11:38;100821.81;;;0.24;77.05
13869;BME280;7004;48.206;16.402;2023-01-29T03:14:18;100816.56;;;0.30;77.07
13869;BME280;7004;48.206;16.402;2023-01-29T03:16:52;100819.13;;;0.40;77.00
13869;BME280;7004;48.206;16.402;2023-01-29T03:19:49;100827.03;;;0.16;77.24
13869;BME280;7004;48.206;16.402;2023-01-29T03:22:16;100820.94;;;0.26;76.44
13869;BME280;7004;48.206;16.402;2023-01-29T03:25:00;100825.28;;;0.22;75.76
13869;BME280;7004;48.206;16.402;2023-01-29T03:27:55;100834.78;;;0.33;76.24
13869;BME280;7004;48.206;16.402;2023-01-29T03:30:47;100832.28;;;-0.01;75.87
13869;BME280;7004;48.206;16.402;2023-01-29T03:34:13;100833.09;;;0.15;75.38
13869;BME280;7004;48.206;16.402;2023-01-29T03:37:01;100833.03;;;0.33;74.12
13869;BME280;7004;48.206;16.402;2023-01-29T03:39:28;100822.69;;;0.16;74.39
13869;BME280;7004;48.206;16.402;2023-01-29T03:42:36;100823.44;;;0.48;74.75
13869;BME280;7004;48.206;16.402;2023-01-29T03:59:01;100800.88;;;0.47;71.78
13869;BME280;7004;48.206;16.402;2023-01-29T04:01:43;100800.69;;;0.80;71.65
13869;BME280;7004;48.206;16.402;2023-01-29T04:04:51;100799.16;;;0.49;71.74
13869;BME280;7004;48.206;16.402;2023-01-29T04:07:15;100792.22;;;0.52;70.19
13869;BME280;7004;48.206;16.402;2023-01-29T04:10:11;100787.25;;;-0.05;72.55
13869;BME280;7004;48.206;16.402;2023-01-29T04:13:03;100784.34;;;0.58;71.78
13869;BME280;7004;48.206;16.402;2023-01-29T04:15:35;100787.97;;;0.31;72.41
13869;BME280;7004;48.206;16.402;2023-01-29T04:18:03;100788.00;;;0.24;73.61
13869;BME280;7004;48.206;16.402;2023-01-29T04:20:30;100780.19;;;0.31;73.71
13869;BME280;7004;48.206;16.402;2023-01-29T04:22:56;100782.63;;;0.54;72.44
13869;BME280;7004;48.206;16.402;2023-01-29T04:25:28;100789.53;;;0.66;71.77
13869;BME280;7004;48.206;16.402;2023-01-29T04:30:57;100782.59;;;0.63;71.87
13869;BME280;7004;48.206;16.402;2023-01-29T04:33:49;100788.03;;;0.16;73.57
13869;BME280;7004;48.206;16.402;2023-01-29T04:51:27;100805.22;;;0.52;72.95
13869;BME280;7004;48.206;16.402;2023-01-29T04:54:12;100808.06;;;-0.17;74.44
13869;BME280;7004;48.206;16.402;2023-01-29T04:59:47;100815.44;;;0.80;72.43
13869;BME280;7004;48.206;16.402;2023-01-29T05:02:13;100816.63;;;0.14;71.64
13869;BME280;7004;48.206;16.402;2023-01-29T05:04:42;100814.13;;;-0.10;71.91
13869;BME280;7004;48.206;16.402;2023-01-29T05:07:12;100820.19;;;-0.13;72.12
13869;BME280;7004;48.206;16.402;2023-01-29T05:09:42;100813.25;;;-0.20;70.43
13869;BME280;7004;48.206;16.402;2023-01-29T05:12:11;100820.09;;;0.19;69.77
13869;BME280;7004;48.206;16.402;2023-01-29T05:14:41;100813.31;;;-0.41;68.10
13869;BME280;7004;48.206;16.402;2023-01-29T05:17:17;100811.47;;;0.08;67.89
13869;BME280;7004;48.206;16.402;2023-01-29T05:19:45;100818.44;;;-0.22;68.18
13869;BME280;7004;48.206;16.402;2023-01-29T05:22:15;100808.94;;;-0.29;68.73
13869;BME280;7004;48.206;16.402;2023-01-29T05:24:42;100811.50;;;-0.12;68.09
13869;BME280;7004;48.206;16.402;2023-01-29T05:27:33;100813.25;;;-0.09;68.84
13869;BME280;7004;48.206;16.402;2023-01-29T05:30:18;100808.94;;;-0.35;68.58
13869;BME280;7004;48.206;16.402;2023-01-29T05:32:44;100808.00;;;0.02;67.92
13869;BME280;7004;48.206;16.402;2023-01-29T05:35:10;100808.88;;;-0.06;67.43
13869;BME280;7004;48.206;16.402;2023-01-29T05:37:36;100805.50;;;-0.45;68.71
13869;BME280;7004;48.206;16.402;2023-01-29T05:40:03;100805.38;;;0.11;68.27
13869;BME280;7004;48.206;16.402;2023-01-29T05:42:29;100808.00;;;0.06;67.40
13869;BME280;7004;48.206;16.402;2023-01-29T05:44:55;100811.50;;;-0.09;68.63
13869;BME280;7004;48.206;16.402;2023-01-29T05:47:21;100810.47;;;0.35;67.54
13869;BME280;7004;48.206;16.402;2023-01-29T05:49:48;100811.28;;;0.51;65.83
13869;BME280;7004;48.206;16.402;2023-01-29T05:52:13;100811.47;;;0.02;66.57
13869;BME280;7004;48.206;16.402;2023-01-29T05:54:40;100809.72;;;0.04;67.23
13869;BME280;7004;48.206;16.402;2023-01-29T05:57:06;100808.00;;;0.11;66.94
13869;BME280;7004;48.206;16.402;2023-01-29T05:59:32;100804.34;;;0.49;66.58
13869;BME280;7004;48.206;16.402;2023-01-29T06:01:58;100803.59;;;0.25;68.00
13869;BME280;7004;48.206;16.402;2023-01-29T06:04:24;100801.97;;;-0.02;66.99
13869;BME280;7004;48.206;16.402;2023-01-29T06:06:51;100799.41;;;-0.22;67.60
13869;BME280;7004;48.206;16.402;2023-01-29T06:09:17;100798.47;;;0.07;66.83
13869;BME280;7004;48.206;16.402;2023-01-29T06:11:43;100801.03;;;0.13;66.35
13869;BME280;7004;48.206;16.402;2023-01-29T06:14:09;100800.22;;;-0.11;67.62
13869;BME280;7004;48.206;16.402;2023-01-29T06:16:35;100801.13;;;-0.16;66.93
13869;BME280;7004;48.206;16.402;2023-01-29T06:19:01;100807.22;;;-0.40;67.99
13869;BME280;7004;48.206;16.402;2023-01-29T06:21:27;100802.84;;;-0.11;66.35
13869;BME280;7004;48.206;16.402;2023-01-29T06:23:54;100798.56;;;-0.50;67.47
13869;BME280;7004;48.206;16.402;2023-01-29T06:26:20;100806.38;;;-0.61;68.57
13869;BME280;7004;48.206;16.402;2023-01-29T06:28:50;100803.75;;;-0.18;66.20
13869;BME280;7004;48.206;16.402;2023-01-29T06:31:16;100807.25;;;-0.74;67.64
13869;BME280;7004;48.206;16.402;2023-01-29T06:33:43;100804.66;;;-0.47;67.33
13869;BME280;7004;48.206;16.402;2023-01-29T06:36:09;100812.41;;;-0.30;68.19
13869;BME280;7004;48.206;16.402;2023-01-29T06:38:36;100828.00;;;-0.83;68.92
13869;BME280;7004;48.206;16.402;2023-01-29T06:41:14;100821.94;;;-0.47;67.88
13869;BME280;7004;48.206;16.402;2023-01-29T06:43:44;100820.19;;;-0.24;66.59
13869;BME280;7004;48.206;16.402;2023-01-29T06:46:10;100828.88;;;-0.52;67.44
13869;BME280;7004;48.206;16.402;2023-01-29T06:48:36;100818.47;;;-0.25;66.51
13869;BME280;7004;48.206;16.402;2023-01-29T06:51:05;100825.44;;;-0.39;66.59
13869;BME280;7004;48.206;16.402;2023-01-29T06:53:33;100827.16;;;-0.90;67.77
13869;BME280;7004;48.206;16.402;2023-01-29T06:56:00;100823.69;;;-0.80;67.87
13869;BME280;7004;48.206;16.402;2023-01-29T06:58:26;100815.81;;;-1.35;68.06
13869;BME280;7004;48.206;16.402;2023-01-29T07:00:52;100814.97;;;-1.17;67.95
13869;BME280;7004;48.206;16.402;2023-01-29T07:03:19;100808.09;;;-1.00;68.63
13869;BME280;7004;48.206;16.402;2023-01-29T07:05:51;100813.31;;;-0.77;66.85
13869;BME280;7004;48.206;16.402;2023-01-29T07:08:18;100806.38;;;-0.46;66.91
13869;BME280;7004;48.206;16.402;2023-01-29T07:10:48;100815.00;;;-1.08;66.67
13869;BME280;7004;48.206;16.402;2023-01-29T07:13:15;100801.19;;;-0.70;66.29
13869;BME280;7004;48.206;16.402;2023-01-29T07:15:41;100821.06;;;-1.07;66.56
13869;BME280;7004;48.206;16.402;2023-01-29T07:18:09;100811.53;;;-1.13;65.79
13869;BME280;7004;48.206;16.402;2023-01-29T07:20:42;100816.72;;;-1.15;68.06
13869;BME280;7004;48.206;16.402;2023-01-29T07:23:13;100807.25;;;-0.56;66.22
13869;BME280;7004;48.206;16.402;2023-01-29T07:25:40;100808.97;;;-0.99;67.59
13869;BME280;7004;48.206;16.402;2023-01-29T07:28:06;100816.75;;;-0.41;66.71
13869;BME280;7004;48.206;16.402;2023-01-29T07:30:33;100807.25;;;-0.54;66.74
13869;BME280;7004;48.206;16.402;2023-01-29T07:33:05;100797.72;;;-0.52;66.35
13869;BME280;7004;48.206;16.402;2023-01-29T07:35:35;100811.56;;;-0.87;66.82
13869;BME280;7004;48.206;16.402;2023-01-29T07:38:01;100808.09;;;-1.04;66.61
13869;BME280;7004;48.206;16.402;2023-01-29T07:40:27;100817.63;;;-0.93;65.54
13869;BME280;7004;48.206;16.402;2023-01-29T07:42:59;100813.28;;;-0.52;65.59
13869;BME280;7004;48.206;16.402;2023-01-29T07:45:25;100815.84;;;-0.22;65.75
13869;BME280;7004;48.206;16.402;2023-01-29T07:47:53;100808.03;;;-0.06;63.90
13869;BME280;7004;48.206;16.402;2023-01-29T07:50:23;100814.13;;;-1.07;65.16
13869;BME280;7004;48.206;16.402;2023-01-29T07:52:50;100808.13;;;-0.61;65.57
13869;BME280;7004;48.206;16.402;2023-01-29T07:55:17;100816.75;;;-0.99;65.10
13869;BME280;7004;48.206;16.402;2023-01-29T07:57:43;100818.50;;;-0.88;65.11
13869;BME280;7004;48.206;16.402;2023-01-29T08:00:11;100825.44;;;-0.77;63.75
13869;BME280;7004;48.206;16.402;2023-01-29T08:02:40;100832.31;;;-1.13;65.69
13869;BME280;7004;48.206;16.402;2023-01-29T08:05:20;100824.53;;;-0.47;63.89
13869;BME280;7004;48.206;16.402;2023-01-29T08:07:53;100817.56;;;-0.07;63.35
13869;BME280;7004;48.206;16.402;2023-01-29T08:10:19;100821.09;;;-0.38;63.96
13869;BME280;7004;48.206;16.402;2023-01-29T08:12:46;100836.63;;;0.03;62.88
13869;BME280;7004;48.206;16.402;2023-01-29T08:15:12;100838.41;;;-0.65;63.93
13869;BME280;7004;48.206;16.402;2023-01-29T08:17:38;100831.47;;;-0.45;65.10
13869;BME280;7004;48.206;16.402;2023-01-29T08:20:06;100835.81;;;-0.71;63.99
13869;BME280;7004;48.206;16.402;2023-01-29T08:22:35;100831.44;;;-1.11;64.52
13869;BME280;7004;48.206;16.402;2023-01-29T08:25:01;100830.59;;;-0.73;63.72
13869;BME280;7004;48.206;16.402;2023-01-29T08:27:27;100823.66;;;-0.08;62.96
13869;BME280;7004;48.206;16.402;2023-01-29T08:29:54;100822.81;;;-0.68;62.94
13869;BME280;7004;48.206;16.402;2023-01-29T08:32:20;100827.16;;;-0.84;64.24
13869;BME280;7004;48.206;16.402;2023-01-29T08:34:46;100842.75;;;-0.44;64.92
13869;BME280;7004;48.206;16.402;2023-01-29T08:37:12;100842.75;;;-0.41;63.51
13869;BME280;7004;48.206;16.402;2023-01-29T08:39:39;100846.19;;;-0.40;63.29
13869;BME280;7004;48.206;16.402;2023-01-29T08:42:05;100851.34;;;-0.07;62.99
13869;BME280;7004;48.206;16.402;2023-01-29T08:44:31;100852.16;;;0.15;62.67
13869;BME280;7004;48.206;16.402;2023-01-29T08:46:57;100864.41;;;-0.51;63.37
13869;BME280;7004;48.206;16.402;2023-01-29T08:49:23;100861.78;;;-0.51;65.43
13869;BME280;7004;48.206;16.402;2023-01-29T08:51:49;100862.66;;;-0.49;64.38
13869;BME280;7004;48.206;16.402;2023-01-29T08:54:19;100858.28;;;-0.09;63.14
13869;BME280;7004;48.206;16.402;2023-01-29T08:56:45;100864.38;;;-0.17;63.46
13869;BME280;7004;48.206;16.402;2023-01-29T08:59:11;100884.28;;;-0.66;64.05
13869;BME280;7004;48.206;16.402;2023-01-29T09:01:38;100875.66;;;-0.61;63.36
13869;BME280;7004;48.206;16.402;2023-01-29T09:04:04;100873.03;;;-0.60;63.51
13869;BME280;7004;48.206;16.402;2023-01-29T09:06:30;100875.63;;;-0.80;63.33
13869;BME280;7004;48.206;16.402;2023-01-29T09:08:56;100869.59;;;-0.48;62.67
13869;BME280;7004;48.206;16.402;2023-01-29T09:11:22;100877.38;;;-0.47;63.69
13869;BME280;7004;48.206;16.402;2023-01-29T09:13:48;100882.56;;;-0.37;62.88
13869;BME280;7004;48.206;16.402;2023-01-29T09:16:14;100865.94;;;0.39;62.64
13869;BME280;7004;48.206;16.402;2023-01-29T09:18:41;100869.56;;;-0.16;63.54
13869;BME280;7004;48.206;16.402;2023-01-29T09:21:08;100868.72;;;-0.61;62.79
13869;BME280;7004;48.206;16.402;2023-01-29T09:23:34;100868.50;;;0.56;61.44
13869;BME280;7004;48.206;16.402;2023-01-29T09:26:01;100868.63;;;0.14;61.52
13869;BME280;7004;48.206;16.402;2023-01-29T09:28:27;100875.63;;;-0.15;63.35
13869;BME280;7004;48.206;16.402;2023-01-29T09:30:53;100864.16;;;0.58;61.95
13869;BME280;7004;48.206;16.402;2023-01-29T09:33:19;100871.13;;;0.48;61.29
13869;BME280;7004;48.206;16.402;2023-01-29T09:35:46;100872.19;;;-0.59;63.77
13869;BME280;7004;48.206;16.402;2023-01-29T09:38:12;100863.38;;;0.33;61.56
13869;BME280;7004;48.206;16.402;2023-01-29T09:43:52;100869.47;;;0.32;59.75
13869;BME280;7004;48.206;16.402;2023-01-29T09:49:24;100867.78;;;0.11;61.48
13869;BME280;7004;48.206;16.402;2023-01-29T09:52:01;100871.03;;;0.73;60.84
13869;BME280;7004;48.206;16.402;2023-01-29T09:54:50;100860.78;;;0.30;62.27
13869;BME280;7004;48.206;16.402;2023-01-29T09:57:26;100860.03;;;-0.05;62.87
13869;BME280;7004;48.206;16.402;2023-01-29T09:59:54;100858.50;;;1.38;60.38
13869;BME280;7004;48.206;16.402;2023-01-29T10:10:33;100853.00;;;0.27;60.66
13869;BME280;7004;48.206;16.402;2023-01-29T10:13:28;100855.59;;;0.27;61.72
13869;BME280;7004;48.206;16.402;2023-01-29T10:25:20;100845.06;;;3.21;67.63
13869;BME280;7004;48.206;16.402;2023-01-29T10:27:56;100843.59;;;2.35;58.30
13869;BME280;7004;48.206;16.402;2023-01-29T10:30:31;100836.53;;;2.44;56.55
13869;BME280;7004;48.206;16.402;2023-01-29T10:33:04;100831.38;;;1.59;58.03
13869;BME280;7004;48.206;16.402;2023-01-29T10:35:48;100828.72;;;0.32;60.04
13869;BME280;7004;48.206;16.402;2023-01-29T10:50:04;100816.25;;;0.88;59.55
13869;BME280;7004;48.206;16.402;2023-01-29T10:53:08;100827.78;;;0.50;60.70
13869;BME280;7004;48.206;16.402;2023-01-29T10:59:31;100802.06;;;1.35;58.65
13869;BME280;7004;48.206;16.402;2023-01-29T11:02:00;100818.47;;;1.43;59.28
13869;BME280;7004;48.206;16.402;2023-01-29T11:04:29;100813.50;;;1.13;59.82
13869;BME280;7004;48.206;16.402;2023-01-29T11:06:57;100811.97;;;0.82;59.96
13869;BME280;7004;48.206;16.402;2023-01-29T11:09:56;100819.03;;;0.63;60.39
13869;BME280;7004;48.206;16.402;2023-01-29T11:12:28;100804.34;;;1.66;58.98
13869;BME280;7004;48.206;16.402;2023-01-29T11:15:19;100801.34;;;1.15;59.00
13869;BME280;7004;48.206;16.402;2023-01-29T11:18:20;100798.50;;;1.44;59.97
13869;BME280;7004;48.206;16.402;2023-01-29T11:21:01;100789.50;;;1.75;58.79
13869;BME280;7004;48.206;16.402;2023-01-29T11:23:32;100781.34;;;1.20;58.68
13869;BME280;7004;48.206;16.402;2023-01-29T11:26:07;100774.28;;;1.31;59.84
13869;BME280;7004;48.206;16.402;2023-01-29T11:28:49;100765.78;;;1.99;59.01
13869;BME280;7004;48.206;16.402;2023-01-29T11:31:24;100756.28;;;1.03;58.68
13869;BME280;7004;48.206;16.402;2023-01-29T11:34:11;100750.66;;;1.49;59.09
13869;BME280;7004;48.206;16.402;2023-01-29T11:36:38;100752.03;;;0.95;59.79
13869;BME280;7004;48.206;16.402;2023-01-29T11:39:20;100744.94;;;1.11;59.41
13869;BME280;7004;48.206;16.402;2023-01-29T11:42:04;100732.47;;;1.45;58.59
13869;BME280;7004;48.206;16.402;2023-01-29T11:44:41;100727.78;;;1.78;57.20
13869;BME280;7004;48.206;16.402;2023-01-29T11:47:20;100720.41;;;2.13;57.50
13869;BME280;7004;48.206;16.402;2023-01-29T11:49:52;100714.97;;;1.58;57.64
13869;BME280;7004;48.206;16.402;2023-01-29T11:52:42;100716.38;;;2.53;56.52
13869;BME280;7004;48.206;16.402;2023-01-29T11:55:21;100703.97;;;2.67;55.35
13869;BME280;7004;48.206;16.402;2023-01-29T12:00:30;100688.31;;;2.67;54.32
13869;BME280;7004;48.206;16.402;2023-01-29T12:03:38;100677.59;;;2.86;55.23
13869;BME280;7004;48.206;16.402;2023-01-29T12:09:22;100660.16;;;3.79;52.29
13869;BME280;7004;48.206;16.402;2023-01-29T12:11:50;100656.34;;;3.05;53.09
13869;BME280;7004;48.206;16.402;2023-01-29T12:14:31;100651.94;;;1.98;56.24
13869;BME280;7004;48.206;16.402;2023-01-29T12:17:18;100654.03;;;2.34;55.14
13869;BME280;7004;48.206;16.402;2023-01-29T12:19:55;100646.25;;;3.34;52.59
13869;BME280;7004;48.206;16.402;2023-01-29T12:22:46;100650.88;;;3.19;52.33
13869;BME280;7004;48.206;16.402;2023-01-29T12:31:44;100633.66;;;2.56;53.94
13869;BME280;7004;48.206;16.402;2023-01-29T12:34:26;100628.25;;;3.18;52.43
13869;BME280;7004;48.206;16.402;2023-01-29T12:37:18;100626.50;;;3.64;51.43
13869;BME280;7004;48.206;16.402;2023-01-29T12:39:48;100622.91;;;2.76;53.36
13869;BME280;7004;48.206;16.402;2023-01-29T12:42:20;100630.41;;;2.96;53.37
13869;BME280;7004;48.206;16.402;2023-01-29T12:45:09;100624.75;;;2.12;55.17
13869;BME280;7004;48.206;16.402;2023-01-29T12:47:48;100617.44;;;2.37;55.59
13869;BME280;7004;48.206;16.402;2023-01-29T12:50:20;100622.28;;;3.10;53.88
13869;BME280;7004;48.206;16.402;2023-01-29T12:55:58;100628.84;;;2.30;54.92
13869;BME280;7004;48.206;16.402;2023-01-29T12:58:37;100623.47;;;1.81;56.29
13869;BME280;7004;48.206;16.402;2023-01-29T13:04:47;100612.88;;;1.93;55.91
13869;BME280;7004;48.206;16.402;2023-01-29T13:07:23;100611.63;;;1.57;57.23
13869;BME280;7004;48.206;16.402;2023-01-29T13:10:09;100594.81;;;2.38;56.87
13869;BME280;7004;48.206;16.402;2023-01-29T13:13:05;100595.25;;;2.10;56.63
13869;BME280;7004;48.206;16.402;2023-01-29T13:15:42;100588.34;;;2.60;56.06
13869;BME280;7004;48.206;16.402;2023-01-29T13:18:42;100580.78;;;2.96;56.09
13869;BME280;7004;48.206;16.402;2023-01-29T13:21:17;100584.66;;;2.72;56.50
13869;BME280;7004;48.206;16.402;2023-01-29T13:24:13;100586.28;;;2.81;56.71
13869;BME280;7004;48.206;16.402;2023-01-29T13:26:43;100584.59;;;2.77;54.32
13869;BME280;7004;48.206;16.402;2023-01-29T13:29:23;100583.47;;;2.92;54.94
13869;BME280;7004;48.206;16.402;2023-01-29T13:31:52;100583.03;;;3.15;53.96
13869;BME280;7004;48.206;16.402;2023-01-29T13:34:35;100580.59;;;2.57;55.13
13869;BME280;7004;48.206;16.402;2023-01-29T13:37:10;100582.03;;;2.75;55.24
13869;BME280;7004;48.206;16.402;2023-01-29T13:39:48;100577.97;;;3.05;55.00
13869;BME280;7004;48.206;16.402;2023-01-29T13:42:19;100574.75;;;3.38;54.35
13869;BME280;7004;48.206;16.402;2023-01-29T13:44:55;100576.81;;;2.21;57.59
13869;BME280;7004;48.206;16.402;2023-01-29T13:47:31;100567.22;;;2.76;55.95
13869;BME280;7004;48.206;16.402;2023-01-29T13:50:20;100576.75;;;2.77;55.82
13869;BME280;7004;48.206;16.402;2023-01-29T13:55:36;100579.78;;;3.02;55.57
13869;BME280;7004;48.206;16.402;2023-01-29T14:00:55;100578.34;;;1.75;58.53
13869;BME280;7004;48.206;16.402;2023-01-29T14:05:59;100575.22;;;2.65;57.23
13869;BME280;7004;48.206;16.402;2023-01-29T14:13:49;100560.09;;;2.86;58.16
13869;BME280;7004;48.206;16.402;2023-01-29T14:18:56;100582.72;;;1.73;60.66
13869;BME280;7004;48.206;16.402;2023-01-29T14:21:34;100574.63;;;1.92;61.47
13869;BME280;7004;48.206;16.402;2023-01-29T14:24:20;100568.94;;;2.24;58.32
13869;BME280;7004;48.206;16.402;2023-01-29T14:26:52;100560.88;;;2.38;58.96
13869;BME280;7004;48.206;16.402;2023-01-29T14:29:25;100558.88;;;2.01;59.74
13869;BME280;7004;48.206;16.402;2023-01-29T14:34:44;100565.31;;;1.75;61.44
13869;BME280;7004;48.206;16.402;2023-01-29T14:39:50;100561.41;;;2.04;58.94
13869;BME280;7004;48.206;16.402;2023-01-29T14:42:33;100575.13;;;1.57;60.39
13869;BME280;7004;48.206;16.402;2023-01-29T14:45:36;100567.53;;;2.57;59.08
13869;BME280;7004;48.206;16.402;2023-01-29T14:53:18;100567.41;;;2.11;60.47
13869;BME280;7004;48.206;16.402;2023-01-29T14:56:01;100577.63;;;1.64;61.29
13869;BME280;7004;48.206;16.402;2023-01-29T15:01:38;100570.81;;;2.14;60.83
13869;BME280;7004;48.206;16.402;2023-01-29T15:04:19;100579.19;;;1.79;61.91
13869;BME280;7004;48.206;16.402;2023-01-29T15:09:41;100577.13;;;2.01;60.97
13869;BME280;7004;48.206;16.402;2023-01-29T15:15:04;100589.63;;;1.03;62.60
13869;BME280;7004;48.206;16.402;2023-01-29T15:18:07;100594.19;;;0.84;64.04
13869;BME280;7004;48.206;16.402;2023-01-29T15:20:37;100595.88;;;1.64;61.97
13869;BME280;7004;48.206;16.402;2023-01-29T15:23:27;100598.06;;;1.28;62.82
13869;BME280;7004;48.206;16.402;2023-01-29T15:26:04;100601.97;;;0.84;63.57
13869;BME280;7004;48.206;16.402;2023-01-29T15:28:33;100600.13;;;0.97;63.45
13869;BME280;7004;48.206;16.402;2023-01-29T15:31:04;100592.78;;;1.31;62.31
13869;BME280;7004;48.206;16.402;2023-01-29T15:33:34;100596.53;;;1.07;63.68
13869;BME280;7004;48.206;16.402;2023-01-29T15:36:04;100591.47;;;0.97;64.24
13869;BME280;7004;48.206;16.402;2023-01-29T15:38:33;100588.25;;;1.49;63.61
13869;BME280;7004;48.206;16.402;2023-01-29T15:41:18;100596.78;;;1.60;62.80
13869;BME280;7004;48.206;16.402;2023-01-29T15:43:55;100596.47;;;1.14;62.28
13869;BME280;7004;48.206;16.402;2023-01-29T15:46:39;100595.06;;;0.82;64.62
13869;BME280;7004;48.206;16.402;2023-01-29T15:49:10;100601.94;;;0.87;65.94
13869;BME280;7004;48.206;16.402;2023-01-29T15:51:41;100593.16;;;0.98;64.44